Terminal Aerodrome Forecast
Issued by NWS

Home | Current Version | Previous Version | Text Only | Print | Product List | Glossary On
Versions: 1 2 3 4 5 6 7 8 9 10 11 12
000
FTUS44 KLUB 300500
TAFCDS
TAF
KCDS 300520Z 3006/0106 14007KT P6SM SCT150
     FM301500 19012KT P6SM BKN100
     FM302100 19016G25KT P6SM SCT040=

USA.gov is the U.S. government's official web portal to all federal, state and local government web resources and services.